MST,Max TemperatureF,Mean TemperatureF,Min TemperatureF,Max Dew PointF,MeanDew PointF,Min DewpointF,Max Humidity, Mean Humidity, Min Humidity, Max Sea Level PressureIn, Mean Sea Level PressureIn, Min Sea Level PressureIn, Max VisibilityMiles, Mean VisibilityMiles, Min VisibilityMiles, Max Wind SpeedMPH, Mean Wind SpeedMPH, Max Gust SpeedMPH,PrecipitationIn, CloudCover, Events, WindDirDegrees
2012-12-1,50,41,32,36,30,26,92,67,42,29.82,29.76,29.64,10,10,10,28,12,35,0.01,3,,198
2012-12-2,51,39,27,37,29,15,85,66,46,29.88,29.48,29.22,10,10,9,41,21,54,0.01,5,Rain-Snow,190
2012-12-3,42,34,25,19,17,14,69,51,33,30.23,30.09,29.88,10,10,10,23,11,29,0.00,4,,206
2012-12-4,46,34,21,32,25,17,81,63,45,30.20,30.08,29.94,10,10,10,17,6,22,0.00,5,,181
2012-12-5,54,42,29,33,29,22,76,59,41,30.00,29.90,29.79,10,10,10,32,10,39,T,2,Rain,230
2012-12-6,37,30,22,25,22,17,92,76,59,30.05,29.98,29.87,10,10,9,17,7,22,T,2,,212
2012-12-7,36,28,20,17,15,12,77,58,38,30.06,29.93,29.70,10,10,10,30,13,37,T,2,,216
2012-12-8,31,19,6,25,9,0,75,54,33,30.27,29.93,29.65,10,8,0,29,8,41,T,6,Fog-Snow,268
2012-12-9,25,14,3,10,3,-2,86,63,39,30.51,30.32,30.08,10,10,10,24,12,31,0.00,5,,208
2012-12-10,36,30,24,21,15,8,75,55,35,30.13,30.06,30.00,10,10,10,26,14,31,0.00,6,,245
2012-12-11,42,34,26,21,19,17,68,53,38,30.01,29.76,29.55,10,10,10,23,13,29,0.00,3,,212
2012-12-12,37,29,21,30,26,18,100,82,63,29.89,29.63,29.50,10,8,2,18,4,23,0.01,7,Snow,168
2012-12-13,36,25,13,21,16,10,92,74,56,30.04,29.96,29.88,10,10,10,12,5,13,0.00,0,,201
2012-12-14,34,25,15,25,21,12,100,81,61,29.84,29.75,29.66,10,7,2,15,4,29,0.01,7,Snow,215
2012-12-15,29,24,18,25,20,12,96,82,68,29.89,29.78,29.72,10,7,0,15,5,20,0.03,8,Fog-Snow,206
2012-12-16,29,23,16,17,12,6,77,64,50,29.84,29.77,29.64,10,10,10,21,9,25,0.00,3,,218
2012-12-17,36,25,13,27,20,9,78,67,56,29.77,29.52,29.35,10,6,0,37,13,44,T,6,Fog-Snow,251
2012-12-18,25,15,5,11,4,-3,83,64,45,30.05,29.93,29.76,10,10,10,17,11,22,0.00,1,,203
2012-12-19,21,11,0,4,-2,-7,75,60,45,30.38,30.25,30.07,10,10,10,23,11,26,0.00,0,,205
2012-12-20,30,17,4,11,6,1,73,56,39,30.37,30.27,30.17,10,10,10,18,5,23,0.00,1,,229
2012-12-21,34,21,8,14,7,0,63,52,41,30.19,30.11,30.04,10,10,10,12,6,29,0.00,0,,205
2012-12-22,34,22,10,17,10,4,67,53,39,30.10,29.96,29.83,10,10,10,16,5,24,0.00,1,,146
2012-12-23,32,23,14,20,14,6,81,66,50,30.09,29.93,29.79,10,10,10,15,8,17,0.00,3,,194
2012-12-24,22,14,6,16,9,1,88,81,73,30.32,29.97,29.79,10,7,1,17,8,21,T,7,Snow,59
2012-12-25,21,11,0,12,6,-3,88,73,57,30.37,30.21,29.99,10,10,10,8,2,9,T,6,,93
2012-12-26,25,21,16,16,14,12,92,76,60,29.95,29.83,29.70,10,9,4,8,4,9,T,8,Snow,144
2012-12-27,29,21,12,16,13,9,92,75,58,30.10,29.99,29.85,10,10,10,8,3,8,0.00,5,,185
2012-12-28,30,21,12,14,10,5,74,61,47,30.25,30.15,30.07,10,10,10,16,11,21,0.00,2,,209
2012-12-29,24,14,3,9,5,2,73,64,54,30.33,30.22,30.12,10,10,10,12,6,16,0.00,2,,176
2012-12-30,23,13,2,13,7,0,92,77,62,30.30,30.20,29.95,10,9,2,13,6,15,T,4,Snow,195
2012-12-31,22,10,-3,10,4,-3,87,70,52,30.37,30.29,30.02,10,10,10,9,3,10,0.00,4,,194